Time;durP1;ratioP1;P1;durP2;ratioP2;P2;SDS_P1;SDS_P2;PMS_P1;PMS_P2;Temp;Humidity;BMP_temperature;BMP_pressure;BME280_temperature;BME280_humidity;BME280_pressure;Samples;Min_cycle;Max_cycle;Signal;HPM_P1;HPM_P2
2022/09/05 00:02:28;;;;;;;10.73;5.47;;;;;;;20.29;52.99;101770.50;6306565;22;20069;-59
2022/09/05 00:05:18;;;;;;;10.05;5.32;;;;;;;20.35;52.72;101771.28;6306916;22;20057;-59
2022/09/05 00:07:59;;;;;;;7.22;5.40;;;;;;;20.27;53.23;101761.50;6306136;22;20033;-59
2022/09/05 00:11:02;;;;;;;9.45;5.88;;;;;;;20.28;53.04;101768.00;6306940;22;20023;-59
2022/09/05 00:13:48;;;;;;;11.15;5.90;;;;;;;20.26;53.03;101759.81;6306723;22;20073;-60
2022/09/05 00:16:42;;;;;;;11.82;6.28;;;;;;;20.16;53.54;101764.69;6306976;22;20011;-59
2022/09/05 00:19:35;;;;;;;9.63;6.55;;;;;;;20.21;53.20;101767.50;6306899;22;20015;-60
2022/09/05 00:22:18;;;;;;;12.45;6.43;;;;;;;20.07;54.01;101762.53;6305651;22;20009;-60
2022/09/05 00:25:04;;;;;;;12.38;6.45;;;;;;;20.13;53.54;101773.78;6306838;22;20110;-60
2022/09/05 00:28:00;;;;;;;13.48;6.78;;;;;;;20.12;53.21;101770.09;6307220;22;20031;-60
2022/09/05 00:30:33;;;;;;;8.38;6.70;;;;;;;19.95;54.23;101764.03;6307110;22;20086;-60
2022/09/05 00:33:11;;;;;;;8.57;6.43;;;;;;;20.02;53.64;101762.56;6306632;22;20093;-60
2022/09/05 00:35:55;;;;;;;12.43;6.03;;;;;;;19.99;53.69;101756.69;6305495;22;20015;-60
2022/09/05 00:38:23;;;;;;;11.80;5.95;;;;;;;19.89;54.04;101763.25;6306987;22;20038;-60
2022/09/05 00:40:55;;;;;;;8.98;6.05;;;;;;;19.88;54.13;101760.72;6306588;22;20089;-61
2022/09/05 00:43:28;;;;;;;8.55;6.10;;;;;;;19.84;53.86;101761.28;6305527;22;20475;-61
2022/09/05 00:45:58;;;;;;;15.02;6.00;;;;;;;19.79;54.00;101761.34;6306313;22;20019;-61
2022/09/05 00:49:06;;;;;;;11.85;6.28;;;;;;;19.86;53.58;101759.03;6305619;22;20082;-61
2022/09/05 00:51:56;;;;;;;12.25;6.38;;;;;;;19.79;54.00;101758.53;6235180;22;20007;-60
2022/09/05 00:54:55;;;;;;;10.73;5.93;;;;;;;19.81;53.91;101761.06;6305979;22;20012;-61
2022/09/05 00:57:41;;;;;;;7.97;5.95;;;;;;;19.75;54.04;101748.97;6306313;22;20366;-61
2022/09/05 01:00:38;;;;;;;9.65;5.88;;;;;;;19.63;54.47;101748.50;6305752;22;20070;-61
2022/09/05 01:03:25;;;;;;;6.75;6.00;;;;;;;19.69;54.10;101757.75;6258802;22;20425;-61
2022/09/05 01:06:09;;;;;;;8.65;5.72;;;;;;;19.68;54.10;101756.91;6306124;22;20053;-61
2022/09/05 01:09:08;;;;;;;14.38;6.20;;;;;;;19.63;54.42;101750.50;6306083;22;20018;-61
2022/09/05 01:12:01;;;;;;;9.63;5.82;;;;;;;19.67;54.19;101752.41;6305196;22;20347;-61
2022/09/05 01:14:50;;;;;;;11.88;6.13;;;;;;;19.56;54.60;101745.97;6306777;22;20025;-61
2022/09/05 01:17:29;;;;;;;8.68;5.95;;;;;;;19.57;54.55;101756.13;6305779;22;20015;-61
2022/09/05 01:20:27;;;;;;;11.25;6.10;;;;;;;19.57;54.70;101755.25;6306626;22;20027;-61
2022/09/05 01:23:20;;;;;;;11.80;6.07;;;;;;;19.49;54.85;101753.06;6306342;22;20026;-61
2022/09/05 01:26:04;;;;;;;8.00;5.90;;;;;;;19.50;54.80;101758.44;6305160;22;20010;-61
2022/09/05 01:28:57;;;;;;;7.60;5.88;;;;;;;19.44;55.00;101756.75;6305686;22;20050;-61
2022/09/05 01:31:29;;;;;;;12.88;5.85;;;;;;;19.41;55.18;101746.06;6304442;22;20038;-61
2022/09/05 01:34:04;;;;;;;8.65;5.90;;;;;;;19.41;55.32;101750.88;6305603;22;20014;-61
2022/09/05 01:36:32;;;;;;;9.60;6.53;;;;;;;19.36;55.34;101749.78;6306058;22;20424;-61
2022/09/05 01:39:16;;;;;;;9.75;5.70;;;;;;;19.42;55.01;101755.38;6305097;22;20335;-61
2022/09/05 01:42:07;;;;;;;10.00;5.75;;;;;;;19.33;55.16;101750.34;6306472;22;20003;-61
2022/09/05 01:44:54;;;;;;;7.75;5.88;;;;;;;19.37;55.24;101744.97;6305746;22;20070;-62
2022/09/05 01:47:27;;;;;;;9.43;6.20;;;;;;;19.30;55.59;101748.13;6304844;22;20011;-61
2022/09/05 01:50:24;;;;;;;10.80;6.82;;;;;;;19.27;55.37;101748.72;6305935;22;20156;-61
2022/09/05 01:53:14;;;;;;;8.50;6.00;;;;;;;19.31;55.00;101743.34;6305405;22;20328;-61
2022/09/05 01:55:49;;;;;;;9.70;6.90;;;;;;;19.17;55.83;101745.94;6306374;22;20010;-61
2022/09/05 01:58:25;;;;;;;9.95;6.63;;;;;;;19.15;56.02;101745.41;6305811;22;20320;-61
2022/09/05 02:01:15;;;;;;;8.75;6.95;;;;;;;19.25;55.36;101748.13;6305398;22;20003;-61
2022/09/05 02:04:21;;;;;;;9.40;6.57;;;;;;;19.19;55.40;101746.50;6305300;22;20007;-61
2022/09/05 02:06:52;;;;;;;12.70;5.82;;;;;;;19.10;55.83;101746.28;6248480;22;20430;-61
2022/09/05 02:09:55;;;;;;;9.82;6.00;;;;;;;19.17;55.41;101745.09;6305419;22;20006;-61
2022/09/05 02:12:32;;;;;;;8.35;6.13;;;;;;;19.06;56.16;101752.75;6305466;22;20044;-61
2022/09/05 02:15:13;;;;;;;9.27;6.03;;;;;;;19.03;56.04;101740.09;6305109;22;20408;-61
2022/09/05 02:17:41;;;;;;;9.40;6.25;;;;;;;19.03;56.45;101751.38;6305903;22;20011;-61
2022/09/05 02:20:24;;;;;;;7.78;6.15;;;;;;;19.01;56.33;101752.78;6304915;22;20010;-61
2022/09/05 02:23:00;;;;;;;10.00;6.55;;;;;;;18.99;56.28;101755.03;6306134;22;20485;-61
2022/09/05 02:25:48;;;;;;;9.27;5.57;;;;;;;18.93;56.63;101754.22;6305079;22;20008;-61
2022/09/05 02:28:25;;;;;;;8.70;5.95;;;;;;;18.96;56.24;101758.44;6303403;22;20446;-61
2022/09/05 02:30:56;;;;;;;9.75;6.43;;;;;;;18.86;56.57;101756.47;6306065;22;20477;-61
2022/09/05 02:33:30;;;;;;;9.07;6.90;;;;;;;18.92;56.68;101760.13;6305738;22;20031;-61
2022/09/05 02:36:17;;;;;;;10.98;6.28;;;;;;;18.98;56.24;101762.66;6304992;22;20007;-61
2022/09/05 02:38:51;;;;;;;12.30;7.15;;;;;;;18.90;56.68;101757.59;6306390;22;20007;-60
2022/09/05 02:41:53;;;;;;;9.13;6.70;;;;;;;18.91;56.82;101759.28;6304656;22;20007;-61
2022/09/05 02:44:27;;;;;;;10.70;6.03;;;;;;;18.85;57.01;101754.81;6305624;22;20078;-61
2022/09/05 02:47:06;;;;;;;11.30;7.00;;;;;;;18.82;56.81;101756.25;6304801;22;20019;-61
2022/09/05 02:49:59;;;;;;;9.45;6.90;;;;;;;18.75;56.91;101761.31;6305158;22;20003;-61
2022/09/05 02:52:34;;;;;;;9.02;7.00;;;;;;;18.76;57.32;101763.00;6304642;22;20414;-61
2022/09/05 02:55:01;;;;;;;7.68;6.88;;;;;;;18.68;57.46;101763.56;6304913;22;20022;-61
2022/09/05 02:57:36;;;;;;;13.70;7.13;;;;;;;18.69;57.36;101756.78;6307465;22;20003;-60
2022/09/05 03:00:10;;;;;;;13.15;7.45;;;;;;;18.68;57.60;101760.75;6307140;22;20015;-61
2022/09/05 03:03:11;;;;;;;10.95;7.18;;;;;;;18.72;57.07;101761.06;6306038;22;20025;-60
2022/09/05 03:05:42;;;;;;;11.82;8.02;;;;;;;18.65;57.55;101758.50;6307634;22;20010;-61
2022/09/05 03:08:28;;;;;;;8.10;7.30;;;;;;;18.66;57.36;101760.16;6307202;22;20090;-60
2022/09/05 03:11:35;;;;;;;9.95;7.47;;;;;;;18.74;56.87;101758.78;6306604;22;20233;-61
2022/09/05 03:14:22;;;;;;;12.25;7.95;;;;;;;18.57;57.70;101764.72;6307252;22;20057;-61
2022/09/05 03:16:50;;;;;;;10.20;7.25;;;;;;;18.53;57.82;101758.81;6306367;22;20432;-60
2022/09/05 03:19:52;;;;;;;10.32;7.45;;;;;;;18.58;57.25;101763.56;6307240;22;20423;-61
2022/09/05 03:22:41;;;;;;;;;;;;;;;18.82;55.94;101752.56;6308282;22;20015;-60
2022/09/05 03:25:27;;;;;;;12.35;7.53;;;;;;;18.57;56.89;101759.91;6305962;22;19977;-60
2022/09/05 03:28:04;;;;;;;9.98;7.35;;;;;;;18.48;57.66;101758.00;6307940;22;20091;-61
2022/09/05 03:31:07;;;;;;;11.55;6.88;;;;;;;18.50;57.45;101752.91;6306765;22;20007;-61
2022/09/05 03:33:51;;;;;;;12.07;7.32;;;;;;;18.50;57.30;101755.72;6307985;22;20109;-61
2022/09/05 03:36:25;;;;;;;11.23;7.40;;;;;;;18.43;58.07;101750.41;6307613;22;20008;-61
2022/09/05 03:39:12;;;;;;;14.02;7.70;;;;;;;18.34;58.18;101758.56;6306603;22;20090;-60
2022/09/05 03:42:14;;;;;;;15.00;7.47;;;;;;;18.46;57.57;101757.41;6307152;22;20025;-61
2022/09/05 03:44:58;;;;;;;11.98;7.22;;;;;;;18.39;57.77;101757.69;6306614;22;20014;-61
2022/09/05 03:48:06;;;;;;;8.70;7.15;;;;;;;18.44;57.67;101756.88;6307071;22;20027;-60
2022/09/05 03:50:37;;;;;;;11.02;7.47;;;;;;;18.34;58.08;101761.38;6243450;22;20014;-61
2022/09/05 03:53:11;;;;;;;11.95;7.10;;;;;;;18.27;58.47;101760.81;6306438;22;19999;-61
2022/09/05 03:56:09;;;;;;;10.68;7.10;;;;;;;18.33;58.18;101754.06;6306456;22;20382;-61
2022/09/05 03:59:00;;;;;;;10.60;8.18;;;;;;;18.25;58.43;101749.03;6307524;22;20011;-60
2022/09/05 04:01:43;;;;;;;9.80;7.80;;;;;;;18.33;58.40;101753.22;6306215;22;20003;-61
2022/09/05 04:04:42;;;;;;;11.68;7.60;;;;;;;18.33;57.95;101759.69;6305964;22;20003;-61
2022/09/05 04:07:25;;;;;;;12.27;7.60;;;;;;;18.25;58.22;101754.66;6244793;22;20011;-60
2022/09/05 04:10:02;;;;;;;10.85;8.73;;;;;;;18.23;58.75;101758.84;6307206;22;20007;-60
2022/09/05 04:12:33;;;;;;;12.48;8.18;;;;;;;18.19;59.06;101757.72;6306132;22;20013;-60
2022/09/05 04:15:24;;;;;;;10.73;7.57;;;;;;;18.25;58.52;101767.84;6305810;22;20010;-61
2022/09/05 04:17:59;;;;;;;10.68;8.00;;;;;;;18.18;58.85;101756.91;6306916;22;20045;-60
2022/09/05 04:20:44;;;;;;;14.15;8.20;;;;;;;18.19;58.86;101766.16;6305061;22;20431;-61
2022/09/05 04:23:30;;;;;;;10.00;8.80;;;;;;;18.17;59.07;101760.00;6306775;22;20427;-61
2022/09/05 04:26:01;;;;;;;13.73;8.07;;;;;;;18.09;59.27;101756.63;6306434;22;20030;-61
2022/09/05 04:28:50;;;;;;;11.18;9.00;;;;;;;18.11;59.19;101756.34;6305985;22;20014;-60
2022/09/05 04:31:20;;;;;;;12.68;8.32;;;;;;;18.02;59.49;101763.66;6307850;22;20058;-60
2022/09/05 04:34:04;;;;;;;11.02;8.75;;;;;;;18.10;58.91;101746.22;6306297;22;19995;-60
2022/09/05 04:36:32;;;;;;;13.52;9.13;;;;;;;18.00;59.43;101760.25;6306388;22;20006;-60
2022/09/05 04:39:17;;;;;;;10.50;8.48;;;;;;;18.00;59.24;101766.75;6305835;22;20025;-60
2022/09/05 04:42:09;;;;;;;10.23;8.43;;;;;;;17.99;59.35;101765.03;6306395;22;20011;-60
2022/09/05 04:44:58;;;;;;;12.48;8.95;;;;;;;18.02;59.28;101772.06;6285173;22;20014;-60
2022/09/05 04:47:37;;;;;;;13.93;9.02;;;;;;;18.00;59.03;101771.50;6305730;22;20023;-59
2022/09/05 04:50:18;;;;;;;15.93;9.25;;;;;;;18.05;58.79;101774.34;6306588;22;20038;-59
2022/09/05 04:53:17;;;;;;;12.18;9.25;;;;;;;18.01;58.89;101768.44;6305991;22;20016;-59
2022/09/05 04:55:49;;;;;;;15.35;9.93;;;;;;;17.89;59.47;101782.75;6305230;22;20530;-59
2022/09/05 04:58:37;;;;;;;18.33;9.63;;;;;;;17.98;58.72;101790.63;6306230;22;20006;-60
2022/09/05 05:01:08;;;;;;;16.85;9.30;;;;;;;17.95;59.33;101780.78;6306250;22;20364;-60
2022/09/05 05:03:35;;;;;;;15.40;9.40;;;;;;;17.86;59.59;101779.66;6305599;22;20027;-59
2022/09/05 05:06:07;;;;;;;15.02;8.75;;;;;;;17.88;59.57;101786.69;6306016;22;20011;-59
2022/09/05 05:08:49;;;;;;;16.77;10.30;;;;;;;17.93;59.29;101785.00;6306837;22;20010;-59
2022/09/05 05:11:25;;;;;;;17.65;9.50;;;;;;;17.89;59.51;101785.56;6305420;22;20007;-59
2022/09/05 05:14:00;;;;;;;18.77;9.30;;;;;;;17.81;59.60;101791.72;6306582;22;20007;-60
2022/09/05 05:16:37;;;;;;;13.73;9.02;;;;;;;17.79;59.65;101793.13;6305477;22;20332;-60
2022/09/05 05:19:26;;;;;;;14.65;10.00;;;;;;;17.84;59.49;101779.06;6305925;22;20297;-60
2022/09/05 05:21:55;;;;;;;15.35;9.10;;;;;;;17.81;59.67;101796.50;6306345;22;20007;-60
2022/09/05 05:24:30;;;;;;;12.18;8.73;;;;;;;17.77;59.74;101787.78;6304436;22;20003;-59
2022/09/05 05:27:17;;;;;;;13.40;8.60;;;;;;;17.79;59.86;101788.34;6305973;22;20007;-60
2022/09/05 05:29:52;;;;;;;16.25;8.77;;;;;;;17.80;60.02;101797.59;6307127;22;20070;-60
2022/09/05 05:32:42;;;;;;;12.15;9.13;;;;;;;17.87;59.53;101795.38;6305680;22;20007;-60
2022/09/05 05:35:13;;;;;;;13.82;9.40;;;;;;;17.78;60.37;101794.25;6283855;22;20014;-60
2022/09/05 05:38:09;;;;;;;11.97;8.73;;;;;;;17.81;60.16;101782.47;6306735;22;20011;-60
2022/09/05 05:40:37;;;;;;;14.70;9.07;;;;;;;17.78;60.64;101789.47;6306336;22;20324;-60
2022/09/05 05:43:27;;;;;;;16.40;8.98;;;;;;;17.88;59.93;101803.53;6304947;22;20005;-60
2022/09/05 05:45:58;;;;;;;15.18;8.90;;;;;;;17.88;60.44;101792.31;6304874;22;20362;-60
2022/09/05 05:48:37;;;;;;;15.35;9.60;;;;;;;17.87;60.82;101787.78;6305821;22;20011;-59
2022/09/05 05:51:17;;;;;;;14.60;8.95;;;;;;;17.89;60.98;101790.34;6306531;22;19999;-59
2022/09/05 05:53:57;;;;;;;15.00;9.93;;;;;;;17.94;61.03;101793.13;6305780;22;20007;-60
2022/09/05 05:56:49;;;;;;;16.05;9.55;;;;;;;18.04;60.42;101803.56;6305950;22;20386;-60
2022/09/05 05:59:33;;;;;;;;;;;;;;;18.29;59.49;101797.91;6304856;22;20374;-60
2022/09/05 06:02:29;;;;;;;6.95;4.30;;;;;;;18.59;60.02;101790.59;6305997;22;19978;-60
2022/09/05 06:05:23;;;;;;;8.30;4.90;;;;;;;18.83;58.91;101802.91;6306445;22;20042;-61
2022/09/05 06:08:15;;;;;;;6.53;4.60;;;;;;;19.04;58.61;101800.88;6233726;22;20004;-60
2022/09/05 06:11:00;;;;;;;7.72;5.50;;;;;;;19.20;58.20;101807.28;6267674;22;20053;-60
2022/09/05 06:13:57;;;;;;;9.18;5.53;;;;;;;19.33;57.77;101806.63;6304044;22;20041;-60
2022/09/05 06:16:47;;;;;;;10.35;5.65;;;;;;;19.48;57.41;101818.97;6305855;22;20078;-60
2022/09/05 06:19:31;;;;;;;8.73;5.20;;;;;;;19.59;56.96;101809.34;6305255;22;20007;-60
2022/09/05 06:22:30;;;;;;;8.30;5.45;;;;;;;19.68;56.98;101813.25;6305912;22;20007;-61
2022/09/05 06:25:15;;;;;;;6.93;5.50;;;;;;;19.77;56.80;101811.50;6305966;22;20045;-60
2022/09/05 06:28:00;;;;;;;10.45;5.97;;;;;;;19.89;56.64;101813.13;6303998;22;20004;-60
2022/09/05 06:30:33;;;;;;;9.07;5.65;;;;;;;19.97;56.32;101812.50;6305152;22;20003;-60
2022/09/05 06:33:23;;;;;;;11.70;6.55;;;;;;;20.03;56.35;101814.13;6305719;22;20003;-61
2022/09/05 06:36:13;;;;;;;9.13;5.80;;;;;;;20.13;56.00;101808.44;6306051;22;20050;-60
2022/09/05 06:39:03;;;;;;;6.15;5.53;;;;;;;20.22;55.93;101814.28;6304754;22;20399;-61
2022/09/05 06:42:14;;;;;;;9.30;5.53;;;;;;;20.29;55.74;101814.78;6305149;22;20078;-61
2022/09/05 06:44:53;;;;;;;9.25;5.45;;;;;;;20.39;55.58;101813.84;6303062;22;20004;-59
2022/09/05 06:47:19;;;;;;;11.30;6.22;;;;;;;20.46;55.58;101817.16;6305041;22;20019;-60
2022/09/05 06:50:10;;;;;;;9.63;5.20;;;;;;;20.50;55.18;101813.47;6304635;22;20086;-60
2022/09/05 06:53:14;;;;;;;9.18;5.00;;;;;;;20.57;55.12;101807.50;6305415;22;20297;-60
2022/09/05 06:55:59;;;;;;;11.45;6.13;;;;;;;20.63;54.63;101805.44;6304950;22;20054;-60
2022/09/05 06:58:49;;;;;;;6.40;4.88;;;;;;;20.74;54.21;101812.66;6306092;22;20007;-60
2022/09/05 07:01:25;;;;;;;6.18;4.60;;;;;;;20.79;54.54;101807.81;6305995;22;20011;-60
2022/09/05 07:04:11;;;;;;;9.77;4.20;;;;;;;20.80;54.13;101809.50;6304478;22;20305;-59
2022/09/05 07:07:09;;;;;;;8.88;4.40;;;;;;;20.91;54.03;101821.53;6305585;22;20038;-60
2022/09/05 07:10:12;;;;;;;5.10;4.38;;;;;;;20.91;53.66;101821.53;6303912;22;20011;-60
2022/09/05 07:12:45;;;;;;;6.70;4.50;;;;;;;20.98;53.61;101827.63;6305903;22;20007;-60
2022/09/05 07:15:36;;;;;;;7.03;4.38;;;;;;;21.04;53.33;101828.44;6304687;22;20007;-60
2022/09/05 07:18:20;;;;;;;8.02;4.18;;;;;;;21.13;53.13;101826.63;6305537;22;20459;-60
2022/09/05 07:21:04;;;;;;;7.88;4.18;;;;;;;21.17;52.53;101819.22;6304809;22;20427;-60
2022/09/05 07:23:59;;;;;;;6.30;3.90;;;;;;;21.24;53.04;101822.53;6304451;22;20089;-60
2022/09/05 07:26:24;;;;;;;5.15;4.15;;;;;;;21.31;52.22;101822.16;6306181;22;20060;-60
2022/09/05 07:28:56;;;;;;;5.82;3.90;;;;;;;21.37;52.21;101829.44;6306031;22;20328;-60
2022/09/05 07:31:25;;;;;;;;;;;;;;;21.38;52.92;101828.31;6305123;22;20297;-60
2022/09/05 07:34:07;;;;;;;7.57;3.75;;;;;;;21.49;51.79;101829.00;6304861;22;19938;-61
2022/09/05 07:36:48;;;;;;;5.75;3.78;;;;;;;21.60;50.93;101826.88;6306285;22;20010;-60
2022/09/05 07:39:21;;;;;;;11.02;4.10;;;;;;;21.66;51.24;101837.81;6304976;22;20429;-61
2022/09/05 07:41:55;;;;;;;5.25;4.30;;;;;;;21.68;51.05;101844.00;6305390;22;20002;-61
2022/09/05 07:44:33;;;;;;;5.47;3.60;;;;;;;21.77;50.68;101842.19;6305025;22;20003;-61
2022/09/05 07:47:10;;;;;;;12.10;4.35;;;;;;;21.78;49.13;101846.69;6306325;22;20558;-61
2022/09/05 07:49:37;;;;;;;5.43;3.50;;;;;;;21.91;49.68;101841.41;6307319;22;20061;-61
2022/09/05 07:52:13;;;;;;;6.75;3.67;;;;;;;22.03;49.40;101836.13;6306716;22;20033;-61
2022/09/05 07:54:44;;;;;;;5.45;3.50;;;;;;;22.06;47.95;101839.19;6306715;22;20525;-61
2022/09/05 07:57:22;;;;;;;10.05;3.72;;;;;;;22.18;49.11;101841.56;6307070;22;20003;-60
2022/09/05 07:59:54;;;;;;;6.32;3.28;;;;;;;22.41;47.25;101845.44;6306521;22;20013;-61
2022/09/05 08:02:19;;;;;;;5.63;3.00;;;;;;;22.50;47.21;101848.41;6307450;22;20078;-61
2022/09/05 08:04:45;;;;;;;5.78;2.90;;;;;;;22.60;46.41;101842.56;6306643;22;20031;-61
2022/09/05 08:07:14;;;;;;;10.48;3.45;;;;;;;22.68;46.19;101838.19;6305254;22;20014;-60
2022/09/05 08:09:45;;;;;;;5.20;3.05;;;;;;;22.93;46.62;101851.88;6307045;22;20010;-60
2022/09/05 08:12:29;;;;;;;4.75;2.65;;;;;;;22.98;46.78;101825.44;6306352;22;20007;-60
2022/09/05 08:15:17;;;;;;;4.50;2.65;;;;;;;23.09;46.70;101834.59;6305570;22;20049;-60
2022/09/05 08:17:53;;;;;;;9.85;3.08;;;;;;;23.22;46.20;101831.72;6307486;22;20008;-60
2022/09/05 08:20:36;;;;;;;7.70;3.03;;;;;;;23.29;45.76;101831.31;6305237;22;20014;-60
2022/09/05 08:23:26;;;;;;;7.38;2.78;;;;;;;23.44;46.12;101833.00;6307344;22;20007;-60
2022/09/05 08:25:57;;;;;;;5.57;2.70;;;;;;;23.62;44.81;101843.38;6306976;22;20014;-60
2022/09/05 08:28:54;;;;;;;7.30;2.67;;;;;;;23.70;45.13;101839.81;6307511;22;20007;-60
2022/09/05 08:31:33;;;;;;;5.50;2.67;;;;;;;23.88;44.66;101848.47;6281442;22;20317;-60
2022/09/05 08:34:02;;;;;;;4.35;2.75;;;;;;;24.02;44.08;101845.59;6305821;22;20081;-60
2022/09/05 08:36:36;;;;;;;7.22;2.70;;;;;;;23.98;43.42;101845.41;6306458;22;20000;-60
2022/09/05 08:39:03;;;;;;;6.40;2.13;;;;;;;24.15;43.88;101848.38;6306238;22;20011;-60
2022/09/05 08:41:49;;;;;;;7.68;2.65;;;;;;;24.15;44.82;101848.38;6306032;22;19999;-60
2022/09/05 08:44:40;;;;;;;3.78;2.50;;;;;;;24.23;44.16;101844.78;6305392;22;20003;-60
2022/09/05 08:47:21;;;;;;;4.65;2.35;;;;;;;24.27;43.58;101841.28;6305338;22;20426;-61
2022/09/05 08:50:07;;;;;;;7.83;2.63;;;;;;;24.37;43.40;101836.22;6306616;22;20335;-60
2022/09/05 08:52:33;;;;;;;3.65;2.25;;;;;;;24.56;43.38;101836.00;6306589;22;20018;-61
2022/09/05 08:55:20;;;;;;;5.25;2.30;;;;;;;24.66;42.21;101830.06;6304622;22;20324;-60
2022/09/05 08:57:45;;;;;;;4.72;2.28;;;;;;;24.78;41.91;101834.31;6305932;22;20010;-60
2022/09/05 09:00:19;;;;;;;3.78;2.10;;;;;;;24.92;42.56;101830.22;6306455;22;20007;-60
2022/09/05 09:03:14;;;;;;;4.30;2.30;;;;;;;24.91;43.21;101825.69;6305572;22;20003;-61
2022/09/05 09:05:56;;;;;;;8.32;2.20;;;;;;;25.01;42.89;101818.88;6306425;22;20025;-60
2022/09/05 09:08:49;;;;;;;2.33;1.70;;;;;;;25.00;42.93;101817.22;6305218;22;20011;-61
2022/09/05 09:11:30;;;;;;;5.70;2.05;;;;;;;25.04;42.04;101828.75;6305758;22;20443;-61
2022/09/05 09:14:36;;;;;;;5.53;2.30;;;;;;;25.04;41.96;101823.91;6305315;22;20003;-60
2022/09/05 09:17:18;;;;;;;3.13;2.08;;;;;;;25.06;40.81;101818.72;6305614;22;20324;-61
2022/09/05 09:19:49;;;;;;;3.20;1.92;;;;;;;25.11;40.29;101821.47;6306126;22;20427;-61
2022/09/05 09:22:37;;;;;;;4.80;2.03;;;;;;;25.12;40.96;101823.16;6305205;22;20045;-61
2022/09/05 09:25:12;;;;;;;4.40;1.80;;;;;;;25.14;40.71;101817.13;6305865;22;20003;-60
2022/09/05 09:28:15;;;;;;;5.90;1.92;;;;;;;25.23;41.28;101815.16;6305502;22;20098;-61
2022/09/05 09:30:46;;;;;;;8.30;2.00;;;;;;;25.33;40.23;101802.66;6305069;22;20011;-61
2022/09/05 09:33:21;;;;;;;5.40;2.03;;;;;;;25.41;40.39;101804.66;6306445;22;20031;-60
2022/09/05 09:36:21;;;;;;;5.03;2.28;;;;;;;25.39;39.92;101802.16;6306048;22;20015;-62
2022/09/05 09:39:17;;;;;;;3.72;1.88;;;;;;;25.46;39.68;101813.03;6305637;22;20557;-60
2022/09/05 09:42:01;;;;;;;4.13;1.75;;;;;;;25.41;39.45;101808.34;6257642;22;20003;-59
2022/09/05 09:45:16;;;;;;;5.63;2.00;;;;;;;25.42;39.99;101806.34;6303366;22;20416;-59
2022/09/05 09:48:00;;;;;;;5.13;2.05;;;;;;;25.52;38.70;101806.03;6243070;22;20470;-59
2022/09/05 09:50:57;;;;;;;2.47;1.92;;;;;;;25.54;38.99;101803.69;6304977;22;19999;-60
2022/09/05 09:53:35;;;;;;;4.25;1.63;;;;;;;25.63;37.62;101801.69;6305573;22;20007;-59
2022/09/05 09:56:29;;;;;;;3.15;1.80;;;;;;;25.71;37.69;101800.88;6306407;22;20331;-60
2022/09/05 09:59:03;;;;;;;3.28;1.83;;;;;;;25.92;37.86;101803.09;6302568;22;20015;-59
2022/09/05 10:01:52;;;;;;;5.40;2.28;;;;;;;25.87;37.94;101797.56;6306873;22;20015;-60
2022/09/05 10:04:32;;;;;;;2.50;1.63;;;;;;;25.84;37.65;101798.22;6305791;22;20003;-59
2022/09/05 10:07:26;;;;;;;3.88;1.75;;;;;;;25.84;38.12;101789.69;6306371;22;20137;-60
2022/09/05 10:10:30;;;;;;;5.10;1.98;;;;;;;25.98;38.19;101793.22;6304679;22;20057;-60
2022/09/05 10:13:18;;;;;;;5.53;2.10;;;;;;;25.97;38.05;101783.00;6305326;22;20652;-58
2022/09/05 10:16:11;;;;;;;3.33;1.73;;;;;;;26.15;37.98;101784.66;6304481;22;20015;-58
2022/09/05 10:19:32;;;;;;;3.90;1.80;;;;;;;26.13;37.55;101774.78;6304292;22;19999;-59
2022/09/05 10:22:22;;;;;;;4.07;1.75;;;;;;;26.27;36.73;101769.75;6276867;22;20006;-60
2022/09/05 10:25:29;;;;;;;3.85;1.70;;;;;;;26.20;37.65;101775.94;6305718;22;20007;-59
2022/09/05 10:28:04;;;;;;;3.03;1.38;;;;;;;26.37;35.86;101774.22;6305975;22;20015;-59
2022/09/05 10:30:39;;;;;;;2.97;1.48;;;;;;;26.37;36.31;101775.09;6305307;22;20420;-59
2022/09/05 10:33:42;;;;;;;3.40;1.40;;;;;;;26.40;36.11;101770.72;6305215;22;20008;-59
2022/09/05 10:36:27;;;;;;;3.30;1.67;;;;;;;26.44;36.05;101761.16;6306124;22;20035;-59
2022/09/05 10:39:11;;;;;;;5.18;1.70;;;;;;;26.51;35.36;101771.22;6306010;22;20003;-59
2022/09/05 10:41:48;;;;;;;3.53;1.70;;;;;;;26.66;34.88;101774.34;6304857;22;20033;-59
2022/09/05 10:44:14;;;;;;;3.22;1.52;;;;;;;26.60;34.55;101760.63;6304858;22;20424;-59
2022/09/05 10:46:55;;;;;;;5.75;1.77;;;;;;;26.52;35.77;101759.47;6303609;22;20024;-60
2022/09/05 10:49:25;;;;;;;7.23;1.60;;;;;;;26.70;35.04;101768.81;6305826;22;20003;-59
2022/09/05 10:52:27;;;;;;;2.63;1.60;;;;;;;26.59;35.42;101764.66;6305635;22;20023;-60
2022/09/05 10:54:55;;;;;;;;;;;;;;;26.53;36.39;101754.66;6303380;22;20015;-60
2022/09/05 10:57:37;;;;;;;4.07;1.67;;;;;;;26.67;34.53;101756.09;6305207;22;20327;-60
2022/09/05 11:00:32;;;;;;;7.40;1.98;;;;;;;26.71;34.95;101752.56;6306435;22;20027;-60
2022/09/05 11:03:00;;;;;;;2.10;1.40;;;;;;;26.86;33.80;101743.44;6304328;22;20022;-60
2022/09/05 11:05:28;;;;;;;2.78;1.20;;;;;;;26.90;33.47;101747.28;6305592;22;20011;-60
2022/09/05 11:08:04;;;;;;;1.73;1.30;;;;;;;27.01;33.48;101742.88;6304298;22;20026;-60
2022/09/05 11:10:50;;;;;;;4.97;1.50;;;;;;;26.99;34.13;101735.84;6305673;22;20003;-60
2022/09/05 11:13:24;;;;;;;4.03;1.67;;;;;;;26.93;33.93;101724.66;6305095;22;20013;-59
2022/09/05 11:16:01;;;;;;;3.53;1.50;;;;;;;27.12;33.38;101726.25;6302464;22;20046;-60
2022/09/05 11:18:44;;;;;;;1.88;1.55;;;;;;;27.24;34.01;101728.34;6307243;22;20068;-60
2022/09/05 11:21:23;;;;;;;2.08;1.40;;;;;;;27.23;33.46;101727.50;6307021;22;20420;-60
2022/09/05 11:24:13;;;;;;;2.88;1.50;;;;;;;27.26;33.03;101723.97;6306914;22;20007;-60
2022/09/05 11:26:47;;;;;;;2.80;1.50;;;;;;;27.25;33.75;101730.84;6243636;22;20449;-62
2022/09/05 11:29:21;;;;;;;1.80;1.58;;;;;;;27.30;34.12;101726.97;6306955;22;19999;-60
2022/09/05 11:32:11;;;;;;;2.50;1.63;;;;;;;27.44;33.19;101733.25;6306965;22;20297;-59
2022/09/05 11:34:43;;;;;;;2.45;1.42;;;;;;;27.39;33.58;101716.31;6306619;22;20503;-58
2022/09/05 11:37:28;;;;;;;;;;;;;;;27.26;35.01;101721.09;6307024;22;20003;-59
2022/09/05 11:40:38;;;;;;;3.53;1.65;;;;;;;27.37;33.75;101715.84;6290475;22;20037;-58
2022/09/05 11:43:27;;;;;;;2.75;1.73;;;;;;;27.38;33.70;101714.66;6305291;22;20029;-59
2022/09/05 11:46:17;;;;;;;3.25;1.60;;;;;;;27.45;33.03;101712.09;6304994;22;20434;-60
2022/09/05 11:49:11;;;;;;;4.78;1.60;;;;;;;27.43;33.78;101714.44;6307030;22;20011;-59
2022/09/05 11:52:20;;;;;;;3.63;1.60;;;;;;;27.50;34.23;101720.44;6306825;22;20007;-59
2022/09/05 11:55:23;;;;;;;3.03;1.70;;;;;;;27.55;33.96;101711.69;6306897;22;20039;-59
2022/09/05 11:58:11;;;;;;;4.28;1.75;;;;;;;27.52;33.66;101714.41;6306466;22;20007;-59
2022/09/05 12:00:48;;;;;;;8.10;2.08;;;;;;;27.62;33.62;101713.94;6306905;22;20007;-60
2022/09/05 12:03:26;;;;;;;2.70;1.40;;;;;;;27.74;34.24;101708.34;6307721;22;20003;-60
2022/09/05 12:06:10;;;;;;;2.85;1.20;;;;;;;27.75;34.05;101714.91;6305553;22;20003;-59
2022/09/05 12:09:13;;;;;;;1.65;1.50;;;;;;;27.78;34.42;101703.59;6307272;22;20011;-59
2022/09/05 12:12:05;;;;;;;3.08;1.80;;;;;;;27.60;34.27;101700.06;6306441;22;20003;-60
2022/09/05 12:15:22;;;;;;;2.92;1.42;;;;;;;27.68;34.01;101689.75;6306675;22;20095;-60
2022/09/05 12:18:05;;;;;;;3.95;1.40;;;;;;;27.80;33.09;101691.88;6306801;22;20011;-59
2022/09/05 12:20:53;;;;;;;5.15;1.50;;;;;;;27.84;33.15;101689.97;6307786;22;20026;-59
2022/09/05 12:23:18;;;;;;;2.83;1.50;;;;;;;27.91;32.81;101686.56;6306884;22;20011;-59
2022/09/05 12:26:32;;;;;;;3.50;1.58;;;;;;;27.79;33.64;101691.03;6306714;22;20061;-59
2022/09/05 12:29:03;;;;;;;4.68;1.67;;;;;;;27.96;33.02;101692.03;6152314;23;20005;-59
2022/09/05 12:31:50;;;;;;;5.07;1.65;;;;;;;27.95;32.70;101688.34;6152110;23;20012;-59
2022/09/05 12:34:54;;;;;;;4.95;1.60;;;;;;;27.93;32.86;101682.16;6259621;22;20039;-59
2022/09/05 12:37:22;;;;;;;3.67;1.60;;;;;;;28.01;32.03;101686.94;6305763;22;20501;-59
2022/09/05 12:40:13;;;;;;;3.17;1.40;;;;;;;27.96;32.99;101681.44;6306413;22;20086;-59
2022/09/05 12:43:07;;;;;;;3.45;1.77;;;;;;;28.04;32.93;101694.78;6285298;22;20011;-59